Time;durP1;ratioP1;P1;durP2;ratioP2;P2;SDS_P1;SDS_P2;PMS_P1;PMS_P2;Temp;Humidity;BMP_temperature;BMP_pressure;BME280_temperature;BME280_humidity;BME280_pressure;Samples;Min_cycle;Max_cycle;Signal;HPM_P1;HPM_P2
2022/08/24 00:01:17;;;;;;;6.27;5.77;;;17.20;99.90;;;;;;4842767;29;20549;-86
2022/08/24 00:03:44;;;;;;;6.70;6.20;;;17.20;99.90;;;;;;4823002;29;21169;-86
2022/08/24 00:06:13;;;;;;;7.13;6.57;;;17.20;99.90;;;;;;4847636;29;20281;-86
2022/08/24 00:08:39;;;;;;;6.57;6.03;;;17.20;99.90;;;;;;4850908;29;20544;-86
2022/08/24 00:11:05;;;;;;;5.93;5.50;;;17.20;99.90;;;;;;4849378;29;20455;-85
2022/08/24 00:13:32;;;;;;;6.43;5.87;;;17.20;99.90;;;;;;4837375;29;20603;-86
2022/08/24 00:15:58;;;;;;;6.20;5.80;;;17.10;99.90;;;;;;4848794;29;20483;-85
2022/08/24 00:18:24;;;;;;;6.83;6.23;;;17.10;99.90;;;;;;4836969;29;20450;-86
2022/08/24 00:20:50;;;;;;;6.40;5.90;;;17.00;99.90;;;;;;4830730;29;20999;-86
2022/08/24 00:23:16;;;;;;;6.37;5.87;;;16.90;99.90;;;;;;4833013;29;20439;-86
2022/08/24 00:25:42;;;;;;;6.30;5.80;;;16.90;99.90;;;;;;4828405;29;20887;-86
2022/08/24 00:28:08;;;;;;;6.40;5.90;;;16.90;99.90;;;;;;4848189;29;20780;-86
2022/08/24 00:30:34;;;;;;;6.50;6.10;;;16.90;99.90;;;;;;4846322;29;20194;-86
2022/08/24 00:33:00;;;;;;;6.20;5.70;;;17.00;99.90;;;;;;4847728;29;20889;-85
2022/08/24 00:35:26;;;;;;;6.63;6.13;;;16.90;99.90;;;;;;4823581;29;20238;-86
2022/08/24 00:37:53;;;;;;;6.97;6.37;;;16.80;99.90;;;;;;4848026;29;20877;-86
2022/08/24 00:40:23;;;;;;;7.00;6.10;;;16.80;99.90;;;;;;4830927;29;20463;-86
2022/08/24 00:42:49;;;;;;;6.67;5.97;;;16.70;99.90;;;;;;4828258;29;20530;-86
2022/08/24 00:45:16;;;;;;;6.57;6.07;;;16.60;99.90;;;;;;4841765;29;20518;-86
2022/08/24 00:47:51;;;;;;;6.27;5.87;;;16.50;99.90;;;;;;4831266;29;20588;-86
2022/08/24 00:50:25;;;;;;;7.13;6.47;;;16.50;99.90;;;;;;4830615;29;20468;-86
2022/08/24 00:53:01;;;;;;;6.83;6.43;;;16.50;99.90;;;;;;4831531;29;20446;-85
2022/08/24 00:55:36;;;;;;;6.27;5.87;;;16.50;99.90;;;;;;4817237;29;20517;-86
2022/08/24 00:58:10;;;;;;;6.93;6.37;;;16.40;99.90;;;;;;4829714;29;20439;-86
2022/08/24 01:00:42;;;;;;;6.37;5.70;;;16.50;99.90;;;;;;4833863;29;20459;-86
2022/08/24 01:03:08;;;;;;;6.47;6.07;;;16.60;99.90;;;;;;4832329;29;20513;-86
2022/08/24 01:05:36;;;;;;;6.17;5.77;;;16.70;99.90;;;;;;4833237;29;20457;-85
2022/08/24 01:08:07;;;;;;;7.17;6.57;;;16.70;99.90;;;;;;4831547;29;20478;-87
2022/08/24 01:10:42;;;;;;;6.13;5.73;;;16.80;99.90;;;;;;4832565;29;20446;-86
2022/08/24 01:13:10;;;;;;;6.33;5.93;;;16.70;99.90;;;;;;4841866;29;20482;-86
2022/08/24 01:15:40;;;;;;;6.23;5.63;;;16.60;99.90;;;;;;4834705;29;20477;-86
2022/08/24 01:21:02;;;;;;;7.67;7.07;;;16.50;99.90;;;;;;4840319;29;20461;-86
2022/08/24 01:23:39;;;;;;;7.07;6.57;;;16.60;99.90;;;;;;4829815;29;20447;-85
2022/08/24 01:26:09;;;;;;;6.50;6.00;;;16.70;99.90;;;;;;4841301;29;20451;-86
2022/08/24 01:28:36;;;;;;;6.73;6.30;;;16.60;99.90;;;;;;4824479;29;20454;-86
2022/08/24 01:31:02;;;;;;;6.83;6.33;;;16.50;99.90;;;;;;4828568;29;20890;-86
2022/08/24 01:33:30;;;;;;;7.00;6.40;;;16.40;99.90;;;;;;4826775;29;20566;-86
2022/08/24 01:36:09;;;;;;;7.50;6.90;;;16.40;99.90;;;;;;4842710;29;20453;-86
2022/08/24 01:38:35;;;;;;;7.33;6.83;;;16.20;99.90;;;;;;4827657;29;20447;-86
2022/08/24 01:41:02;;;;;;;7.80;7.30;;;16.10;99.90;;;;;;4845988;29;20481;-86
2022/08/24 01:43:37;;;;;;;7.73;7.13;;;16.10;99.90;;;;;;4849375;29;20194;-86
2022/08/24 01:46:05;;;;;;;6.90;6.50;;;16.10;99.90;;;;;;4847439;29;21029;-86
2022/08/24 01:48:30;;;;;;;7.73;7.03;;;16.10;99.90;;;;;;4837648;29;20471;-86
2022/08/24 01:50:56;;;;;;;7.20;6.70;;;16.20;99.90;;;;;;4825932;29;20454;-86
2022/08/24 01:53:21;;;;;;;7.10;6.50;;;16.30;99.90;;;;;;4826430;29;20195;-86
2022/08/24 01:55:47;;;;;;;6.83;6.23;;;16.30;99.90;;;;;;4831994;29;20224;-85
2022/08/24 01:58:13;;;;;;;7.30;6.60;;;16.40;99.90;;;;;;4835006;29;21534;-86
2022/08/24 02:00:43;;;;;;;7.00;6.40;;;16.50;99.90;;;;;;4837273;29;20297;-86
2022/08/24 02:03:12;;;;;;;7.57;7.07;;;16.50;99.90;;;;;;4836489;29;20186;-86
2022/08/24 02:05:37;;;;;;;7.87;7.27;;;16.80;99.90;;;;;;4829706;29;20870;-86
2022/08/24 02:08:03;;;;;;;7.60;7.10;;;16.90;99.90;;;;;;4842003;29;20439;-86
2022/08/24 02:10:29;;;;;;;7.50;7.00;;;16.80;99.90;;;;;;4825652;29;20750;-85
2022/08/24 02:13:04;;;;;;;8.30;7.57;;;16.70;99.90;;;;;;4824516;29;20551;-86
2022/08/24 02:15:33;;;;;;;8.33;7.80;;;16.60;99.90;;;;;;4827152;29;20629;-86
2022/08/24 02:17:59;;;;;;;7.53;6.80;;;16.50;99.90;;;;;;4825566;29;20443;-86
2022/08/24 02:20:25;;;;;;;7.60;6.90;;;16.60;99.90;;;;;;4828318;29;20964;-85
2022/08/24 02:22:52;;;;;;;7.20;6.80;;;16.60;99.90;;;;;;4828385;29;20449;-86
2022/08/24 02:25:18;;;;;;;7.40;6.80;;;16.70;99.90;;;;;;4831450;29;20466;-86
2022/08/24 02:27:44;;;;;;;7.43;6.90;;;16.70;99.90;;;;;;4832624;29;20469;-86
2022/08/24 02:30:10;;;;;;;7.50;7.00;;;16.60;99.90;;;;;;4839945;29;20439;-86
2022/08/24 02:32:36;;;;;;;7.53;6.90;;;16.60;99.90;;;;;;4826556;29;20343;-86
2022/08/24 02:35:02;;;;;;;7.70;6.90;;;16.50;99.90;;;;;;4847336;29;20471;-86
2022/08/24 02:37:27;;;;;;;7.33;6.83;;;16.70;99.90;;;;;;4845241;29;20759;-86
2022/08/24 02:39:53;;;;;;;7.33;6.73;;;16.70;99.90;;;;;;4841857;29;20826;-86
2022/08/24 02:42:18;;;;;;;7.27;6.67;;;16.70;99.90;;;;;;4831094;29;20662;-86
2022/08/24 02:44:44;;;;;;;7.00;6.50;;;16.50;99.90;;;;;;4833293;29;20229;-86
2022/08/24 02:47:09;;;;;;;7.47;6.90;;;16.30;99.90;;;;;;4841568;29;20222;-86
2022/08/24 02:49:35;;;;;;;7.23;6.73;;;16.20;99.90;;;;;;4836442;29;20190;-86
2022/08/24 02:52:02;;;;;;;7.60;7.00;;;16.10;99.90;;;;;;4833045;29;20194;-86
2022/08/24 02:54:28;;;;;;;7.30;6.70;;;16.00;99.90;;;;;;4828711;29;20186;-86
2022/08/24 02:56:54;;;;;;;8.97;8.10;;;15.90;99.90;;;;;;4818619;29;20964;-86
2022/08/24 02:59:21;;;;;;;7.50;7.00;;;15.80;99.90;;;;;;4813354;29;20879;-85
2022/08/24 03:01:47;;;;;;;8.50;7.90;;;15.70;99.90;;;;;;4819217;29;20483;-86
2022/08/24 03:04:14;;;;;;;7.60;7.00;;;15.60;99.90;;;;;;4826705;29;20865;-86
2022/08/24 03:06:39;;;;;;;8.50;7.80;;;15.70;99.90;;;;;;4829300;29;20450;-86
2022/08/24 03:09:06;;;;;;;8.43;7.83;;;15.90;99.90;;;;;;4827039;29;20466;-86
2022/08/24 03:11:31;;;;;;;8.20;7.60;;;16.00;99.90;;;;;;4827928;29;20259;-86
2022/08/24 03:14:00;;;;;;;8.47;7.80;;;16.00;99.90;;;;;;4826642;29;20528;-85
2022/08/24 03:16:29;;;;;;;7.77;7.27;;;16.10;99.90;;;;;;4833172;29;20229;-86
2022/08/24 03:18:55;;;;;;;8.50;7.80;;;16.00;99.90;;;;;;4842587;29;20514;-86
2022/08/24 03:21:20;;;;;;;8.53;7.93;;;15.90;99.90;;;;;;4829119;29;20489;-86
2022/08/24 03:23:46;;;;;;;7.40;6.90;;;15.70;99.90;;;;;;4820354;29;20267;-86
2022/08/24 03:26:12;;;;;;;8.27;7.53;;;15.70;99.90;;;;;;4828622;29;20472;-86
2022/08/24 03:28:38;;;;;;;8.30;7.70;;;15.80;99.90;;;;;;4823356;29;20696;-86
2022/08/24 03:31:04;;;;;;;8.53;7.93;;;15.90;99.90;;;;;;4826727;29;20455;-86
2022/08/24 03:33:30;;;;;;;8.70;8.00;;;16.00;99.90;;;;;;4839585;29;20962;-86
2022/08/24 03:35:56;;;;;;;8.70;8.10;;;16.00;99.90;;;;;;4826587;29;20490;-86
2022/08/24 03:38:21;;;;;;;8.13;7.60;;;16.10;99.90;;;;;;4819612;29;20208;-86
2022/08/24 03:40:47;;;;;;;9.00;8.30;;;16.10;99.90;;;;;;4841331;29;20211;-85
2022/08/24 03:43:44;;;;;;;9.03;8.23;;;16.20;99.90;;;;;;4844409;29;20303;-86
2022/08/24 03:46:00;;;;;;;9.17;8.40;;;16.20;99.90;;;;;;4842805;29;20231;-85
2022/08/24 03:48:27;;;;;;;8.73;8.03;;;16.20;99.90;;;;;;4826104;29;21764;-86
2022/08/24 03:50:53;;;;;;;9.13;8.43;;;16.10;99.90;;;;;;4828347;29;20463;-85
2022/08/24 03:53:18;;;;;;;8.70;7.97;;;16.00;99.90;;;;;;4834740;29;20457;-85
2022/08/24 03:55:44;;;;;;;8.87;8.17;;;16.10;99.90;;;;;;4834185;29;20254;-85
2022/08/24 03:58:10;;;;;;;8.87;8.00;;;16.20;99.90;;;;;;4848042;29;20194;-85
2022/08/24 04:00:38;;;;;;;8.70;8.03;;;16.40;99.90;;;;;;4824446;29;20571;-86
2022/08/24 04:03:03;;;;;;;8.77;8.17;;;16.40;99.90;;;;;;4848715;29;20182;-86
2022/08/24 04:05:30;;;;;;;9.70;8.90;;;16.30;99.90;;;;;;4822994;29;20443;-86
2022/08/24 04:07:58;;;;;;;9.13;8.43;;;16.10;99.90;;;;;;4834981;29;20254;-86
2022/08/24 04:10:24;;;;;;;9.30;8.50;;;16.20;99.90;;;;;;4851061;29;21079;-86
2022/08/24 04:12:49;;;;;;;8.43;7.73;;;16.20;99.90;;;;;;4833580;29;20209;-86
2022/08/24 04:15:17;;;;;;;8.80;8.20;;;16.20;99.90;;;;;;4852893;29;20218;-86
2022/08/24 04:17:46;;;;;;;8.10;7.40;;;16.10;99.90;;;;;;4842044;29;20569;-86
2022/08/24 04:20:11;;;;;;;10.50;8.80;;;16.10;99.90;;;;;;4820657;29;20446;-86
2022/08/24 04:22:37;;;;;;;8.87;8.20;;;16.00;99.90;;;;;;4826591;29;20357;-86
2022/08/24 04:25:04;;;;;;;9.53;8.83;;;16.10;99.90;;;;;;4821232;29;20194;-86
2022/08/24 04:27:30;;;;;;;8.73;8.13;;;16.00;99.90;;;;;;4833895;29;20556;-85
2022/08/24 04:30:03;;;;;;;9.23;8.37;;;16.00;99.90;;;;;;4843656;29;20471;-85
2022/08/24 04:32:31;;;;;;;10.50;9.70;;;15.90;99.90;;;;;;4826960;29;20187;-86
2022/08/24 04:34:57;;;;;;;9.83;8.83;;;15.90;99.90;;;;;;4842307;29;20484;-86
2022/08/24 04:37:24;;;;;;;9.97;9.27;;;15.80;99.90;;;;;;4826806;29;20481;-85
2022/08/24 04:39:51;;;;;;;9.00;8.30;;;15.90;99.90;;;;;;4832074;29;21183;-85
2022/08/24 04:42:17;;;;;;;9.47;8.73;;;15.90;99.90;;;;;;4851240;29;20462;-85
2022/08/24 04:44:54;;;;;;;8.63;7.83;;;15.90;99.90;;;;;;4835457;29;20486;-85
2022/08/24 04:47:23;;;;;;;8.50;7.80;;;16.10;99.90;;;;;;4856805;29;20190;-86
2022/08/24 04:49:48;;;;;;;8.77;8.07;;;16.20;99.90;;;;;;4847897;29;20451;-85
2022/08/24 04:52:14;;;;;;;8.80;7.93;;;16.20;99.90;;;;;;4845801;29;20975;-85
2022/08/24 04:54:39;;;;;;;8.60;7.90;;;16.30;99.90;;;;;;4828106;29;20217;-85
2022/08/24 04:57:05;;;;;;;8.63;8.07;;;16.30;99.90;;;;;;4831782;29;20257;-86
2022/08/24 04:59:30;;;;;;;8.27;7.67;;;16.30;99.90;;;;;;4838783;29;20852;-87
2022/08/24 05:01:56;;;;;;;8.90;8.20;;;16.20;99.90;;;;;;4841570;29;20647;-86
2022/08/24 05:04:24;;;;;;;8.93;8.23;;;16.20;99.90;;;;;;4840917;29;20594;-85
2022/08/24 05:06:49;;;;;;;9.33;8.70;;;16.10;99.90;;;;;;4832047;29;20197;-88
2022/08/24 05:09:15;;;;;;;9.27;8.47;;;16.00;99.90;;;;;;4847192;29;20850;-86
2022/08/24 05:11:40;;;;;;;8.27;7.67;;;16.10;99.90;;;;;;4832347;29;20226;-87
2022/08/24 05:14:07;;;;;;;8.37;7.77;;;16.10;99.90;;;;;;4835708;29;20221;-86
2022/08/24 05:16:36;;;;;;;8.90;8.20;;;16.20;99.90;;;;;;4831761;29;20316;-86
2022/08/24 05:19:02;;;;;;;9.27;8.47;;;16.20;99.90;;;;;;4820227;29;20450;-86
2022/08/24 05:21:29;;;;;;;8.90;8.07;;;16.10;99.90;;;;;;4829880;29;20490;-85
2022/08/24 05:23:55;;;;;;;9.13;8.43;;;16.20;99.90;;;;;;4824651;29;20516;-85
2022/08/24 05:26:24;;;;;;;9.20;8.50;;;16.30;99.90;;;;;;4821071;29;20459;-85
2022/08/24 05:28:53;;;;;;;8.63;7.80;;;16.40;99.90;;;;;;4816024;29;20266;-85
2022/08/24 05:31:22;;;;;;;8.60;7.97;;;16.40;99.90;;;;;;4821566;29;20444;-86
2022/08/24 05:33:48;;;;;;;9.50;8.70;;;16.40;99.90;;;;;;4847365;29;20523;-85
2022/08/24 05:36:20;;;;;;;8.70;8.10;;;16.40;99.90;;;;;;4844613;29;20482;-85
2022/08/24 05:38:50;;;;;;;9.47;8.60;;;16.50;99.90;;;;;;4839395;29;20964;-85
2022/08/24 05:41:16;;;;;;;8.50;7.80;;;16.50;99.90;;;;;;4820115;29;20908;-87
2022/08/24 05:43:44;;;;;;;8.70;7.90;;;16.40;99.90;;;;;;4846261;29;20451;-86
2022/08/24 05:46:11;;;;;;;9.17;8.47;;;16.30;99.90;;;;;;4842437;29;20186;-86
2022/08/24 05:48:37;;;;;;;8.83;8.23;;;16.30;99.90;;;;;;4846308;29;20549;-86
2022/08/24 05:51:04;;;;;;;9.83;8.60;;;16.40;99.90;;;;;;4830182;29;20490;-87
2022/08/24 05:53:30;;;;;;;9.10;8.30;;;16.30;99.90;;;;;;4826307;29;20191;-86
2022/08/24 05:55:56;;;;;;;8.40;7.60;;;16.40;99.90;;;;;;4832300;29;20486;-86
2022/08/24 05:58:21;;;;;;;9.23;8.40;;;16.40;99.90;;;;;;4825627;29;20969;-86
2022/08/24 06:00:48;;;;;;;8.90;8.10;;;16.50;99.90;;;;;;4830673;29;20198;-86
2022/08/24 06:03:14;;;;;;;9.20;8.50;;;16.70;99.90;;;;;;4833198;29;20282;-86
2022/08/24 06:05:41;;;;;;;9.70;8.80;;;16.90;99.90;;;;;;4822146;29;20462;-85
2022/08/24 06:08:08;;;;;;;9.70;8.90;;;17.00;99.90;;;;;;4822746;29;20241;-85
2022/08/24 06:10:42;;;;;;;9.53;8.73;;;17.00;99.90;;;;;;4834307;29;20450;-86
2022/08/24 06:13:08;;;;;;;7.83;7.23;;;17.00;99.90;;;;;;4832121;29;20449;-85
2022/08/24 06:15:34;;;;;;;10.73;7.73;;;17.00;99.90;;;;;;4842026;29;20525;-84
2022/08/24 06:18:00;;;;;;;9.03;8.33;;;17.00;99.90;;;;;;4841860;29;20447;-85
2022/08/24 06:20:28;;;;;;;9.83;8.93;;;17.00;99.90;;;;;;4840161;29;20504;-84
2022/08/24 06:22:54;;;;;;;9.53;8.60;;;17.20;99.90;;;;;;4847741;29;20853;-85
2022/08/24 06:28:03;;;;;;;9.43;8.63;;;17.50;99.90;;;;;;4843506;29;20252;-85
2022/08/24 06:30:29;;;;;;;9.37;8.23;;;17.50;99.90;;;;;;4847376;29;20447;-84
2022/08/24 06:32:59;;;;;;;8.57;7.97;;;17.60;99.90;;;;;;4829536;29;20201;-85
2022/08/24 06:35:25;;;;;;;8.50;7.90;;;17.70;99.90;;;;;;4823591;29;20229;-83
2022/08/24 06:37:50;;;;;;;8.30;7.70;;;17.80;99.90;;;;;;4825805;29;20986;-86
2022/08/24 06:40:19;;;;;;;8.00;7.40;;;17.80;99.90;;;;;;4829191;29;21380;-85
2022/08/24 06:42:45;;;;;;;9.10;8.07;;;17.90;99.90;;;;;;4826972;29;20198;-85
2022/08/24 06:45:23;;;;;;;8.53;7.63;;;18.00;99.90;;;;;;4845361;29;20900;-85
2022/08/24 06:47:49;;;;;;;8.23;7.53;;;18.20;99.90;;;;;;4824376;29;20431;-85
2022/08/24 06:50:14;;;;;;;7.90;7.30;;;18.30;99.90;;;;;;4824934;29;20456;-86
2022/08/24 06:52:40;;;;;;;8.83;8.13;;;18.50;99.90;;;;;;4828316;29;20191;-86
2022/08/24 06:55:06;;;;;;;7.07;6.47;;;18.60;99.90;;;;;;4827525;29;20270;-85
2022/08/24 06:57:32;;;;;;;8.93;7.50;;;18.60;99.90;;;;;;4835929;29;20260;-85
2022/08/24 06:59:57;;;;;;;7.83;7.27;;;18.60;99.90;;;;;;4829377;29;20538;-84
2022/08/24 07:02:23;;;;;;;7.70;7.10;;;18.70;99.90;;;;;;4828243;29;21168;-85
2022/08/24 07:04:49;;;;;;;8.03;7.40;;;18.80;99.90;;;;;;4823540;29;20608;-86
2022/08/24 07:07:15;;;;;;;7.97;7.30;;;18.90;99.90;;;;;;4834185;29;20182;-85
2022/08/24 07:09:41;;;;;;;7.77;7.07;;;18.90;99.90;;;;;;4844389;29;20215;-85
2022/08/24 07:12:09;;;;;;;7.93;7.30;;;19.00;99.90;;;;;;4845765;29;20451;-85
2022/08/24 07:14:34;;;;;;;7.90;7.30;;;19.10;99.90;;;;;;4831498;29;20598;-86
2022/08/24 07:17:00;;;;;;;7.40;6.90;;;19.30;99.90;;;;;;4831430;29;20465;-85
2022/08/24 07:19:25;;;;;;;7.70;7.00;;;19.50;99.90;;;;;;4831068;29;20187;-86
2022/08/24 07:21:56;;;;;;;7.27;6.77;;;19.60;99.90;;;;;;4831926;29;20850;-87
2022/08/24 07:24:22;;;;;;;6.50;6.10;;;19.60;99.90;;;;;;4833040;29;20438;-87
2022/08/24 07:26:48;;;;;;;8.30;7.43;;;19.70;99.90;;;;;;4830067;29;20454;-87
2022/08/24 07:29:14;;;;;;;7.63;6.70;;;19.90;99.90;;;;;;4827719;29;20197;-86
2022/08/24 07:31:41;;;;;;;8.40;7.60;;;20.10;99.90;;;;;;4829321;29;20198;-87
2022/08/24 07:34:09;;;;;;;8.20;7.60;;;20.20;99.90;;;;;;4843176;29;20477;-86
2022/08/24 07:36:40;;;;;;;6.70;6.30;;;20.30;99.90;;;;;;4824133;29;20486;-87
2022/08/24 07:39:09;;;;;;;6.70;6.30;;;20.40;99.90;;;;;;4849277;29;20462;-86
2022/08/24 07:41:40;;;;;;;6.30;5.90;;;20.50;99.90;;;;;;4849803;29;20458;-87
2022/08/24 07:44:06;;;;;;;7.67;6.97;;;20.70;99.90;;;;;;4851830;29;20529;-86
2022/08/24 07:46:32;;;;;;;6.43;6.03;;;20.90;99.90;;;;;;4850303;29;22019;-86
2022/08/24 07:48:58;;;;;;;6.50;6.00;;;21.10;99.90;;;;;;4841426;29;20245;-86
2022/08/24 07:51:26;;;;;;;6.70;6.20;;;21.10;99.90;;;;;;4834101;29;20233;-86
2022/08/24 07:53:51;;;;;;;6.63;6.07;;;21.20;99.90;;;;;;4850127;29;20221;-86
2022/08/24 07:56:17;;;;;;;8.40;6.40;;;21.30;99.90;;;;;;4831722;29;20582;-86
2022/08/24 07:58:43;;;;;;;6.60;6.20;;;21.50;99.00;;;;;;4835315;29;20194;-88
2022/08/24 08:01:09;;;;;;;7.23;6.63;;;21.60;99.90;;;;;;4850391;29;20221;-86
2022/08/24 08:03:38;;;;;;;6.67;6.07;;;21.90;99.60;;;;;;4848388;29;20182;-86
2022/08/24 08:06:06;;;;;;;6.80;6.40;;;21.80;99.80;;;;;;4843750;29;20783;-86
2022/08/24 08:08:37;;;;;;;9.80;6.30;;;21.90;99.30;;;;;;4847623;29;20455;-85
2022/08/24 08:11:03;;;;;;;6.47;6.07;;;21.90;99.70;;;;;;4853240;29;20451;-86
2022/08/24 08:13:30;;;;;;;6.47;6.00;;;22.00;99.90;;;;;;4830602;29;20457;-86
2022/08/24 08:15:57;;;;;;;6.80;6.40;;;22.30;99.90;;;;;;4847901;29;20616;-85
2022/08/24 08:18:22;;;;;;;5.43;4.93;;;22.40;99.60;;;;;;4850303;29;20446;-85
2022/08/24 08:20:48;;;;;;;4.90;4.50;;;22.40;99.10;;;;;;4847359;29;20467;-85
2022/08/24 08:26:00;;;;;;;5.30;5.00;;;22.60;99.00;;;;;;4851114;29;20510;-86
2022/08/24 08:28:31;;;;;;;5.07;4.47;;;22.70;97.20;;;;;;4852946;29;20438;-86
2022/08/24 08:31:01;;;;;;;5.90;5.40;;;22.80;96.90;;;;;;4834427;29;20515;-86
2022/08/24 08:33:27;;;;;;;5.47;5.07;;;23.00;96.60;;;;;;4848287;29;20965;-86
2022/08/24 08:36:03;;;;;;;5.20;4.80;;;23.00;95.70;;;;;;4827060;29;20912;-85
2022/08/24 08:38:29;;;;;;;4.50;4.10;;;23.10;95.80;;;;;;4828171;29;20534;-87
2022/08/24 08:41:16;;;;;;;4.27;4.00;;;23.30;96.20;;;;;;4827366;29;20469;-86
2022/08/24 08:43:56;;;;;;;5.40;4.10;;;23.60;94.90;;;;;;4833898;29;20186;-86
2022/08/24 08:46:33;;;;;;;4.10;3.77;;;23.80;94.20;;;;;;4828613;29;20443;-86
2022/08/24 08:49:36;;;;;;;3.90;3.60;;;24.10;93.30;;;;;;4831212;29;20470;-86
2022/08/24 08:52:35;;;;;;;5.10;3.93;;;24.30;92.00;;;;;;4845652;29;21116;-85
2022/08/24 08:55:25;;;;;;;3.97;3.63;;;24.50;92.20;;;;;;4834556;29;20471;-86
2022/08/24 08:57:58;;;;;;;3.80;3.50;;;24.50;90.40;;;;;;4832054;29;20451;-85
2022/08/24 09:00:36;;;;;;;4.47;3.53;;;24.70;91.60;;;;;;4830875;29;20525;-85
2022/08/24 09:03:18;;;;;;;2.90;2.70;;;24.60;90.00;;;;;;4847197;29;20443;-84
2022/08/24 09:06:03;;;;;;;3.27;3.07;;;24.60;90.30;;;;;;4834079;29;20493;-85
2022/08/24 09:09:11;;;;;;;4.80;3.57;;;24.70;90.00;;;;;;4845357;29;20445;-86
2022/08/24 09:12:27;;;;;;;5.70;4.20;;;24.80;90.70;;;;;;4827349;29;20465;-85
2022/08/24 09:14:56;;;;;;;4.57;3.83;;;24.70;89.40;;;;;;4829576;29;20467;-86
2022/08/24 09:17:41;;;;;;;4.43;4.13;;;24.80;90.10;;;;;;4838068;29;20679;-85
2022/08/24 09:20:22;;;;;;;4.00;3.70;;;24.90;91.70;;;;;;4834318;29;20826;-85
2022/08/24 09:23:08;;;;;;;4.93;4.20;;;25.00;91.40;;;;;;4848836;29;20478;-86
2022/08/24 09:25:50;;;;;;;4.20;3.90;;;25.40;92.30;;;;;;4850530;29;21001;-85
2022/08/24 09:28:18;;;;;;;5.33;4.10;;;25.60;91.40;;;;;;4851284;29;20442;-85
2022/08/24 09:31:17;;;;;;;5.70;3.80;;;25.60;91.90;;;;;;4842338;29;20445;-84
2022/08/24 09:34:20;;;;;;;3.60;3.40;;;25.60;88.60;;;;;;4836729;29;20443;-84
2022/08/24 09:36:53;;;;;;;3.43;3.23;;;25.50;88.50;;;;;;4848261;29;20479;-84
2022/08/24 09:40:32;;;;;;;3.30;3.10;;;25.30;85.20;;;;;;4848270;29;20672;-92
2022/08/24 09:43:23;;;;;;;3.30;3.10;;;25.10;85.70;;;;;;4819250;29;20455;-92
2022/08/24 09:46:25;;;;;;;4.03;3.50;;;25.30;86.30;;;;;;4830514;29;20460;-93
2022/08/24 09:49:03;;;;;;;3.50;3.30;;;25.50;87.20;;;;;;4828795;29;20447;-92
2022/08/24 09:51:28;;;;;;;3.67;3.47;;;25.70;87.50;;;;;;4827079;29;20436;-91
2022/08/24 09:54:31;;;;;;;3.57;3.37;;;25.70;87.00;;;;;;4829655;29;20460;-92
2022/08/24 09:57:02;;;;;;;3.70;3.40;;;25.90;88.60;;;;;;4822948;29;20213;-92
2022/08/24 09:59:46;;;;;;;2.93;2.73;;;25.90;88.10;;;;;;4828825;29;20443;-91
2022/08/24 10:02:34;;;;;;;3.43;3.23;;;25.90;88.50;;;;;;4829092;29;21039;-92
2022/08/24 10:05:11;;;;;;;3.77;3.37;;;25.80;89.20;;;;;;4846627;29;20431;-91
2022/08/24 10:07:54;;;;;;;6.70;4.17;;;25.70;88.90;;;;;;4825779;29;20672;-94
2022/08/24 10:10:37;;;;;;;3.27;3.07;;;25.80;90.40;;;;;;4826716;29;20451;-93
2022/08/24 10:13:17;;;;;;;4.87;3.03;;;25.90;88.60;;;;;;4847327;29;20451;-92
2022/08/24 10:15:57;;;;;;;3.53;3.23;;;25.90;84.90;;;;;;4847970;29;20491;-92
2022/08/24 10:18:58;;;;;;;3.57;3.37;;;26.00;88.00;;;;;;4838936;29;20439;-93
2022/08/24 10:21:57;;;;;;;2.93;2.60;;;26.00;87.50;;;;;;4821726;29;20482;-93
2022/08/24 10:24:54;;;;;;;2.77;2.67;;;25.80;86.10;;;;;;4845007;29;20458;-93
2022/08/24 10:27:38;;;;;;;3.03;2.83;;;25.90;87.60;;;;;;4805365;29;20451;-93
2022/08/24 10:30:39;;;;;;;2.97;2.70;;;26.30;88.40;;;;;;4840465;29;20531;-94
2022/08/24 10:33:16;;;;;;;5.10;2.90;;;26.90;84.50;;;;;;4844828;29;20443;-92
2022/08/24 10:36:04;;;;;;;3.40;2.40;;;27.10;84.20;;;;;;4839329;29;21546;-94
2022/08/24 10:42:09;;;;;;;2.47;2.27;;;26.90;79.40;;;;;;4805663;29;1063051;-93
2022/08/24 10:44:55;;;;;;;2.60;2.40;;;26.90;77.20;;;;;;4843383;29;20512;-94
2022/08/24 10:47:27;;;;;;;2.60;2.50;;;27.10;76.40;;;;;;4827239;29;20533;-94
2022/08/24 10:50:20;;;;;;;2.80;2.60;;;27.00;76.60;;;;;;4825964;29;21122;-94
2022/08/24 10:53:01;;;;;;;2.70;2.50;;;26.90;82.30;;;;;;4837386;29;20475;-94
2022/08/24 10:55:43;;;;;;;2.87;2.20;;;27.00;81.70;;;;;;4841808;29;20478;-95
2022/08/24 10:58:51;;;;;;;4.57;2.80;;;27.30;82.00;;;;;;4828389;29;20442;-94
2022/08/24 11:01:32;;;;;;;3.00;2.00;;;27.50;78.60;;;;;;4842541;29;20963;-94
2022/08/24 11:04:05;;;;;;;2.27;2.17;;;27.40;79.10;;;;;;4831773;29;20455;-94
2022/08/24 11:06:59;;;;;;;3.67;2.43;;;27.70;70.90;;;;;;4821952;29;21065;-95
2022/08/24 11:09:46;;;;;;;2.63;2.40;;;27.80;77.90;;;;;;4833470;29;20451;-93
2022/08/24 11:12:22;;;;;;;2.40;2.30;;;28.00;75.00;;;;;;4836951;29;20433;-96
2022/08/24 11:14:48;;;;;;;2.10;2.00;;;28.30;76.10;;;;;;4836447;29;20538;-94
2022/08/24 11:17:20;;;;;;;2.63;2.43;;;28.40;77.20;;;;;;4848717;29;20515;-94
2022/08/24 11:19:48;;;;;;;2.33;2.23;;;28.40;75.70;;;;;;4834554;29;20679;-92
2022/08/24 11:22:39;;;;;;;2.83;2.63;;;28.40;78.50;;;;;;4849678;29;20460;-93
2022/08/24 11:25:20;;;;;;;2.80;2.60;;;28.30;72.20;;;;;;4832736;29;20442;-96
2022/08/24 11:28:03;;;;;;;2.17;2.07;;;28.40;74.50;;;;;;4844506;29;21107;-94
2022/08/24 11:30:30;;;;;;;3.10;2.20;;;28.40;74.00;;;;;;4848323;29;20507;-94
2022/08/24 11:33:02;;;;;;;2.40;2.20;;;28.20;73.60;;;;;;4834738;29;20436;-94
2022/08/24 11:35:30;;;;;;;2.20;2.00;;;28.10;71.00;;;;;;4833151;29;20473;-94
2022/08/24 11:38:30;;;;;;;4.50;2.53;;;28.30;75.50;;;;;;4834465;29;20443;-93
2022/08/24 11:41:04;;;;;;;2.23;2.13;;;28.50;72.20;;;;;;4827402;29;20450;-93
2022/08/24 11:43:48;;;;;;;2.00;1.90;;;28.70;72.50;;;;;;4834496;29;20454;-93
2022/08/24 11:46:41;;;;;;;2.20;2.03;;;28.70;72.20;;;;;;4848677;29;20451;-93
2022/08/24 11:49:51;;;;;;;2.30;2.20;;;28.60;73.70;;;;;;4847682;29;20980;-93
2022/08/24 11:52:39;;;;;;;2.20;2.10;;;28.70;74.10;;;;;;4851383;29;20451;-93
2022/08/24 11:55:18;;;;;;;1.90;1.80;;;28.90;73.00;;;;;;4836681;29;20494;-94
2022/08/24 11:58:09;;;;;;;2.73;2.60;;;29.20;70.50;;;;;;4832950;29;20455;-93
2022/08/24 12:01:13;;;;;;;2.30;2.20;;;28.80;70.80;;;;;;4833639;29;20451;-93
2022/08/24 12:04:11;;;;;;;2.20;2.10;;;28.70;70.90;;;;;;4833149;29;20502;-94
2022/08/24 12:06:57;;;;;;;2.20;2.10;;;28.90;69.30;;;;;;4800344;29;20502;-94
2022/08/24 12:09:31;;;;;;;1.80;1.70;;;29.00;73.50;;;;;;4831139;29;20623;-93
2022/08/24 12:12:11;;;;;;;1.80;1.70;;;29.20;75.90;;;;;;4835994;29;20534;-93
2022/08/24 12:14:45;;;;;;;2.20;1.53;;;29.10;61.50;;;;;;4827588;29;20483;-93
2022/08/24 12:17:34;;;;;;;1.47;1.37;;;28.70;60.00;;;;;;4842415;29;20482;-92
2022/08/24 12:20:13;;;;;;;1.70;1.60;;;28.80;60.90;;;;;;4841245;29;20790;-94
2022/08/24 12:22:41;;;;;;;1.70;1.60;;;29.10;61.20;;;;;;4812360;29;20439;-96
2022/08/24 12:27:58;;;;;;;1.70;1.60;;;29.00;63.40;;;;;;4813052;29;20759;-95
2022/08/24 12:30:25;;;;;;;2.40;1.73;;;29.10;60.80;;;;;;4836529;29;20878;-93
2022/08/24 12:32:57;;;;;;;2.20;1.83;;;29.40;64.70;;;;;;4843813;29;20454;-93
2022/08/24 12:35:42;;;;;;;1.57;1.47;;;29.40;61.20;;;;;;4833017;29;20496;-95
2022/08/24 12:38:42;;;;;;;2.20;2.00;;;29.60;65.00;;;;;;4827609;29;20486;-95
2022/08/24 12:41:28;;;;;;;1.87;1.77;;;29.80;62.30;;;;;;4828294;29;20466;-94
2022/08/24 12:44:02;;;;;;;1.67;1.57;;;29.80;58.40;;;;;;4829853;29;20451;-93
2022/08/24 12:46:34;;;;;;;1.40;1.40;;;30.10;61.00;;;;;;4841670;29;20446;-94
2022/08/24 12:49:37;;;;;;;1.80;1.70;;;30.10;55.90;;;;;;4841155;29;20534;-94
2022/08/24 12:52:11;;;;;;;2.57;2.37;;;30.10;57.80;;;;;;4825419;29;20479;-94
2022/08/24 12:54:48;;;;;;;2.10;1.90;;;30.10;60.50;;;;;;4842437;29;20442;-94
2022/08/24 12:57:46;;;;;;;1.90;1.80;;;30.30;60.50;;;;;;4842738;29;20466;-93
2022/08/24 13:00:27;;;;;;;2.00;1.90;;;30.40;60.00;;;;;;4845795;29;20451;-95
2022/08/24 13:03:06;;;;;;;1.80;1.70;;;30.30;59.70;;;;;;4825008;29;20456;-94
2022/08/24 13:05:58;;;;;;;1.90;1.80;;;30.30;59.50;;;;;;4825738;29;20447;-94
2022/08/24 13:08:44;;;;;;;3.23;2.10;;;30.50;59.50;;;;;;4830007;29;20455;-94
2022/08/24 13:11:45;;;;;;;2.40;2.20;;;30.70;66.50;;;;;;4843589;29;20459;-94
2022/08/24 13:14:31;;;;;;;1.80;1.70;;;30.60;61.10;;;;;;4826998;29;20629;-95
2022/08/24 13:16:57;;;;;;;2.40;2.30;;;30.70;59.80;;;;;;4837314;29;20895;-96
2022/08/24 13:19:29;;;;;;;2.30;2.10;;;30.80;61.60;;;;;;4845551;29;21402;-94
2022/08/24 13:22:17;;;;;;;2.47;2.37;;;30.90;57.70;;;;;;4829767;29;20563;-95
2022/08/24 13:24:56;;;;;;;2.53;2.33;;;30.80;63.80;;;;;;4835146;29;20821;-94
2022/08/24 13:27:34;;;;;;;2.50;2.30;;;30.90;62.20;;;;;;4825207;29;20815;-96
2022/08/24 13:30:27;;;;;;;2.60;2.40;;;31.10;63.40;;;;;;4841793;29;20463;-93